sensor_id;sensor_type;location;lat;lon;timestamp;pressure;altitude;pressure_sealevel;temperature
48628;BMP280;34424;52.234;6.500;2023-05-20T00:01:23;65861.63;;;10.87
48628;BMP280;34424;52.234;6.500;2023-05-20T00:06:23;65926.81;;;10.95
48628;BMP280;34424;52.234;6.500;2023-05-20T00:11:23;65961.14;;;11.03
48628;BMP280;34424;52.234;6.500;2023-05-20T00:16:23;65969.87;;;11.1
48628;BMP280;34424;52.234;6.500;2023-05-20T00:21:23;65962.33;;;11.12
48628;BMP280;34424;52.234;6.500;2023-05-20T00:26:23;65944.41;;;11.13
48628;BMP280;34424;52.234;6.500;2023-05-20T00:31:23;65994.48;;;11.15
48628;BMP280;34424;52.234;6.500;2023-05-20T00:36:23;65956.58;;;11.13
48628;BMP280;34424;52.234;6.500;2023-05-20T00:41:23;65931.44;;;11.09
48628;BMP280;34424;52.234;6.500;2023-05-20T00:46:23;65924.58;;;11.07
48628;BMP280;34424;52.234;6.500;2023-05-20T00:51:23;65893.69;;;11.07
48628;BMP280;34424;52.234;6.500;2023-05-20T00:56:23;65961.13;;;11.04
48628;BMP280;34424;52.234;6.500;2023-05-20T01:01:23;65951.89;;;11.09
48628;BMP280;34424;52.234;6.500;2023-05-20T01:06:23;65959.45;;;11.14
48628;BMP280;34424;52.234;6.500;2023-05-20T01:11:24;66001.63;;;11.16
48628;BMP280;34424;52.234;6.500;2023-05-20T01:16:23;65982.59;;;11.14
48628;BMP280;34424;52.234;6.500;2023-05-20T01:21:23;65984.77;;;11.13
48628;BMP280;34424;52.234;6.500;2023-05-20T01:26:23;65978.3;;;11.15
48628;BMP280;34424;52.234;6.500;2023-05-20T01:31:23;65984.48;;;11.21
48628;BMP280;34424;52.234;6.500;2023-05-20T01:36:23;66017.32;;;11.22
48628;BMP280;34424;52.234;6.500;2023-05-20T01:41:23;65983.63;;;11.19
48628;BMP280;34424;52.234;6.500;2023-05-20T01:46:23;65988.63;;;11.11
48628;BMP280;34424;52.234;6.500;2023-05-20T01:51:23;66003.48;;;11.07
48628;BMP280;34424;52.234;6.500;2023-05-20T01:56:23;65955.7;;;11.05
48628;BMP280;34424;52.234;6.500;2023-05-20T02:01:23;65902.12;;;11.06
48628;BMP280;34424;52.234;6.500;2023-05-20T02:06:23;66008.14;;;11.09
48628;BMP280;34424;52.234;6.500;2023-05-20T02:11:23;65962.85;;;11.07
48628;BMP280;34424;52.234;6.500;2023-05-20T02:16:23;65913.75;;;10.96
48628;BMP280;34424;52.234;6.500;2023-05-20T02:21:23;65829.58;;;10.79
48628;BMP280;34424;52.234;6.500;2023-05-20T02:26:23;65850.5;;;10.62
48628;BMP280;34424;52.234;6.500;2023-05-20T02:31:24;65719.71;;;10.46
48628;BMP280;34424;52.234;6.500;2023-05-20T02:36:23;65711.88;;;10.32
48628;BMP280;34424;52.234;6.500;2023-05-20T02:41:23;65600.27;;;10.15
48628;BMP280;34424;52.234;6.500;2023-05-20T02:46:23;65587.82;;;10.05
48628;BMP280;34424;52.234;6.500;2023-05-20T02:51:23;65582.87;;;9.9
48628;BMP280;34424;52.234;6.500;2023-05-20T02:56:23;65478.58;;;9.78
48628;BMP280;34424;52.234;6.500;2023-05-20T03:01:23;65459.97;;;9.71
48628;BMP280;34424;52.234;6.500;2023-05-20T03:06:23;65500.79;;;9.65
48628;BMP280;34424;52.234;6.500;2023-05-20T03:11:23;65449.17;;;9.55
48628;BMP280;34424;52.234;6.500;2023-05-20T03:16:23;65545.44;;;9.47
48628;BMP280;34424;52.234;6.500;2023-05-20T03:21:23;65406.52;;;9.36
48628;BMP280;34424;52.234;6.500;2023-05-20T03:26:23;65462.2;;;9.26
48628;BMP280;34424;52.234;6.500;2023-05-20T03:31:23;65383.34;;;9.26
48628;BMP280;34424;52.234;6.500;2023-05-20T03:36:23;65352.61;;;9.17
48628;BMP280;34424;52.234;6.500;2023-05-20T03:41:23;65265.36;;;9.07
48628;BMP280;34424;52.234;6.500;2023-05-20T03:46:23;65444.58;;;9.1
48628;BMP280;34424;52.234;6.500;2023-05-20T03:51:23;65380.3;;;9.14
48628;BMP280;34424;52.234;6.500;2023-05-20T03:56:23;65313.11;;;9.16
48628;BMP280;34424;52.234;6.500;2023-05-20T04:01:23;65393.45;;;9.21
48628;BMP280;34424;52.234;6.500;2023-05-20T04:06:23;65404.04;;;9.32
48628;BMP280;34424;52.234;6.500;2023-05-20T04:11:23;65435.44;;;9.38
48628;BMP280;34424;52.234;6.500;2023-05-20T04:16:23;65512.63;;;9.46
48628;BMP280;34424;52.234;6.500;2023-05-20T04:21:23;65555.64;;;9.59
48628;BMP280;34424;52.234;6.500;2023-05-20T04:26:23;65533;;;9.72
48628;BMP280;34424;52.234;6.500;2023-05-20T04:31:23;65611.71;;;9.89
48628;BMP280;34424;52.234;6.500;2023-05-20T04:36:23;65631.8;;;10.03
48628;BMP280;34424;52.234;6.500;2023-05-20T04:41:23;65722.75;;;10.45
48628;BMP280;34424;52.234;6.500;2023-05-20T04:46:23;66013.16;;;11.13
48628;BMP280;34424;52.234;6.500;2023-05-20T04:51:23;66670.63;;;13.32
48628;BMP280;34424;52.234;6.500;2023-05-20T04:56:23;67017.53;;;14.31
48628;BMP280;34424;52.234;6.500;2023-05-20T05:01:23;66798.42;;;13.61
48628;BMP280;34424;52.234;6.500;2023-05-20T05:06:23;66717.08;;;13.51
48628;BMP280;34424;52.234;6.500;2023-05-20T05:11:23;66987.7;;;14.12
48628;BMP280;34424;52.234;6.500;2023-05-20T05:16:23;67583.14;;;16.04
48628;BMP280;34424;52.234;6.500;2023-05-20T05:21:23;68128.31;;;17.52
48628;BMP280;34424;52.234;6.500;2023-05-20T05:26:23;68282.3;;;17.98
48628;BMP280;34424;52.234;6.500;2023-05-20T05:31:23;68358.25;;;18.2
48628;BMP280;34424;52.234;6.500;2023-05-20T05:36:23;68279.61;;;18.12
48628;BMP280;34424;52.234;6.500;2023-05-20T05:41:23;68404.42;;;18.27
48628;BMP280;34424;52.234;6.500;2023-05-20T05:46:23;68536.36;;;18.66
48628;BMP280;34424;52.234;6.500;2023-05-20T05:51:23;68474.73;;;18.5
48628;BMP280;34424;52.234;6.500;2023-05-20T05:56:23;68556.33;;;18.84
48628;BMP280;34424;52.234;6.500;2023-05-20T06:01:23;68797.42;;;19.43
48628;BMP280;34424;52.234;6.500;2023-05-20T06:06:23;69142.69;;;20.69
48628;BMP280;34424;52.234;6.500;2023-05-20T06:11:23;69073.94;;;20.23
48628;BMP280;34424;52.234;6.500;2023-05-20T06:16:23;69189.66;;;20.49
48628;BMP280;34424;52.234;6.500;2023-05-20T06:21:23;69116.8;;;20.4
48628;BMP280;34424;52.234;6.500;2023-05-20T06:26:23;69081.27;;;20.24
48628;BMP280;34424;52.234;6.500;2023-05-20T06:31:23;68894.94;;;19.74
48628;BMP280;34424;52.234;6.500;2023-05-20T06:36:23;68971.94;;;20.03
48628;BMP280;34424;52.234;6.500;2023-05-20T06:41:23;69537.88;;;21.5
48628;BMP280;34424;52.234;6.500;2023-05-20T06:46:23;69300.86;;;21.07
48628;BMP280;34424;52.234;6.500;2023-05-20T06:51:23;69244.45;;;20.95
48628;BMP280;34424;52.234;6.500;2023-05-20T06:56:23;69094.16;;;20.57
48628;BMP280;34424;52.234;6.500;2023-05-20T07:01:23;69256.95;;;20.74
48628;BMP280;34424;52.234;6.500;2023-05-20T07:06:23;69335.33;;;20.92
48628;BMP280;34424;52.234;6.500;2023-05-20T07:11:23;69565.45;;;21.86
48628;BMP280;34424;52.234;6.500;2023-05-20T07:16:23;69713.64;;;22.13
48628;BMP280;34424;52.234;6.500;2023-05-20T07:21:23;69352.25;;;21.29
48628;BMP280;34424;52.234;6.500;2023-05-20T07:26:23;69597.66;;;22.2
48628;BMP280;34424;52.234;6.500;2023-05-20T07:31:23;70054.93;;;23.26
48628;BMP280;34424;52.234;6.500;2023-05-20T07:36:24;69850.14;;;22.69
48628;BMP280;34424;52.234;6.500;2023-05-20T07:41:23;70031.56;;;23.37
48628;BMP280;34424;52.234;6.500;2023-05-20T07:46:23;69924.45;;;23.07
48628;BMP280;34424;52.234;6.500;2023-05-20T07:51:23;69577.09;;;22.03
48628;BMP280;34424;52.234;6.500;2023-05-20T07:56:23;69799.56;;;22.7
48628;BMP280;34424;52.234;6.500;2023-05-20T08:01:23;69912.03;;;22.88
48628;BMP280;34424;52.234;6.500;2023-05-20T08:06:23;69652.12;;;22.12
48628;BMP280;34424;52.234;6.500;2023-05-20T08:21:49;102271.7;;;24.73
48628;BMP280;34424;52.234;6.500;2023-05-20T08:26:49;102268.2;;;23.91
48628;BMP280;34424;52.234;6.500;2023-05-20T08:31:49;102261.3;;;24.28
48628;BMP280;34424;52.234;6.500;2023-05-20T08:36:49;102253.3;;;23.95
48628;BMP280;34424;52.234;6.500;2023-05-20T08:41:49;102258.8;;;24.29
48628;BMP280;34424;52.234;6.500;2023-05-20T08:46:49;102265.8;;;23.91
48628;BMP280;34424;52.234;6.500;2023-05-20T08:51:49;102255.9;;;22.07
48628;BMP280;34424;52.234;6.500;2023-05-20T08:56:49;102245.5;;;23.16
48628;BMP280;34424;52.234;6.500;2023-05-20T09:01:49;102238.7;;;23.81
48628;BMP280;34424;52.234;6.500;2023-05-20T09:06:49;102247.7;;;23.83
48628;BMP280;34424;52.234;6.500;2023-05-20T09:11:49;102242.9;;;22.3
48628;BMP280;34424;52.234;6.500;2023-05-20T09:16:50;102241.1;;;22.12
48628;BMP280;34424;52.234;6.500;2023-05-20T09:21:49;102230.6;;;22.33
48628;BMP280;34424;52.234;6.500;2023-05-20T09:26:49;102228.3;;;23.56
48628;BMP280;34424;52.234;6.500;2023-05-20T09:31:49;102227.6;;;23.95
48628;BMP280;34424;52.234;6.500;2023-05-20T09:36:49;102207.4;;;23.95
48628;BMP280;34424;52.234;6.500;2023-05-20T09:41:51;102198.7;;;23.43
48628;BMP280;34424;52.234;6.500;2023-05-20T09:46:49;102217.3;;;24.93
48628;BMP280;34424;52.234;6.500;2023-05-20T09:51:49;102213.5;;;24.72
48628;BMP280;34424;52.234;6.500;2023-05-20T09:56:49;102199.9;;;24.59
48628;BMP280;34424;52.234;6.500;2023-05-20T10:01:49;102202.6;;;23.39
48628;BMP280;34424;52.234;6.500;2023-05-20T10:06:55;102198.6;;;22.82
48628;BMP280;34424;52.234;6.500;2023-05-20T10:11:52;102190.2;;;22.28
48628;BMP280;34424;52.234;6.500;2023-05-20T10:16:52;102189;;;22.15
48628;BMP280;34424;52.234;6.500;2023-05-20T10:21:58;102196.5;;;23.37
48628;BMP280;34424;52.234;6.500;2023-05-20T10:26:53;102184.6;;;22.47
48628;BMP280;34424;52.234;6.500;2023-05-20T10:31:51;102180.3;;;23.01
48628;BMP280;34424;52.234;6.500;2023-05-20T10:36:56;102169;;;23.66
48628;BMP280;34424;52.234;6.500;2023-05-20T10:41:49;102160.7;;;23.54
48628;BMP280;34424;52.234;6.500;2023-05-20T10:46:49;102151.8;;;22.78
48628;BMP280;34424;52.234;6.500;2023-05-20T10:51:49;102127.6;;;22.83
48628;BMP280;34424;52.234;6.500;2023-05-20T10:56:54;102160.4;;;22.44
48628;BMP280;34424;52.234;6.500;2023-05-20T11:01:49;102142.3;;;21.78
48628;BMP280;34424;52.234;6.500;2023-05-20T11:06:52;102134.5;;;21.57
48628;BMP280;34424;52.234;6.500;2023-05-20T11:11:49;102123;;;22.83
48628;BMP280;34424;52.234;6.500;2023-05-20T11:16:49;102119.3;;;23.99
48628;BMP280;34424;52.234;6.500;2023-05-20T11:21:49;102119.8;;;24.89
48628;BMP280;34424;52.234;6.500;2023-05-20T11:26:49;102116.2;;;26.46
48628;BMP280;34424;52.234;6.500;2023-05-20T11:31:50;102100.1;;;26.73
48628;BMP280;34424;52.234;6.500;2023-05-20T11:36:54;102105.8;;;25.57
48628;BMP280;34424;52.234;6.500;2023-05-20T11:41:49;102096.2;;;24.45
48628;BMP280;34424;52.234;6.500;2023-05-20T11:46:49;102092.3;;;24.47
48628;BMP280;34424;52.234;6.500;2023-05-20T11:51:49;102088.2;;;25.2
48628;BMP280;34424;52.234;6.500;2023-05-20T11:56:49;102087.4;;;25.17
48628;BMP280;34424;52.234;6.500;2023-05-20T12:01:49;102082.6;;;24.27
48628;BMP280;34424;52.234;6.500;2023-05-20T12:06:49;102081.9;;;23.81
48628;BMP280;34424;52.234;6.500;2023-05-20T12:11:49;102065.7;;;25.08
48628;BMP280;34424;52.234;6.500;2023-05-20T12:16:49;102070;;;22.78
48628;BMP280;34424;52.234;6.500;2023-05-20T12:21:49;102071;;;22.78
48628;BMP280;34424;52.234;6.500;2023-05-20T12:26:49;102072.6;;;22.67
48628;BMP280;34424;52.234;6.500;2023-05-20T12:31:49;102046.8;;;23.76
48628;BMP280;34424;52.234;6.500;2023-05-20T12:36:49;102047.5;;;24.3
48628;BMP280;34424;52.234;6.500;2023-05-20T12:41:49;102041.5;;;24.45
48628;BMP280;34424;52.234;6.500;2023-05-20T12:46:49;102045.5;;;25.57
48628;BMP280;34424;52.234;6.500;2023-05-20T12:51:49;102041.5;;;24.18
48628;BMP280;34424;52.234;6.500;2023-05-20T12:56:49;102031.3;;;24.59
48628;BMP280;34424;52.234;6.500;2023-05-20T13:01:49;102022.7;;;24.42
48628;BMP280;34424;52.234;6.500;2023-05-20T13:06:49;102035.1;;;25.14
48628;BMP280;34424;52.234;6.500;2023-05-20T13:11:49;102034.4;;;23.92
48628;BMP280;34424;52.234;6.500;2023-05-20T13:16:50;102023.6;;;23.64
48628;BMP280;34424;52.234;6.500;2023-05-20T13:21:49;102019.3;;;25.53
48628;BMP280;34424;52.234;6.500;2023-05-20T13:26:49;102009.5;;;24.88
48628;BMP280;34424;52.234;6.500;2023-05-20T13:31:49;102021;;;24.4
48628;BMP280;34424;52.234;6.500;2023-05-20T13:36:49;102020.9;;;23.96
48628;BMP280;34424;52.234;6.500;2023-05-20T13:41:49;102015.6;;;24.61
48628;BMP280;34424;52.234;6.500;2023-05-20T13:46:49;101999.9;;;23.97
48628;BMP280;34424;52.234;6.500;2023-05-20T13:51:49;102006.7;;;24.44
48628;BMP280;34424;52.234;6.500;2023-05-20T13:56:49;101999.7;;;23.39
48628;BMP280;34424;52.234;6.500;2023-05-20T14:01:49;101990.3;;;22.99
48628;BMP280;34424;52.234;6.500;2023-05-20T14:06:49;101973.7;;;23.36
48628;BMP280;34424;52.234;6.500;2023-05-20T14:11:49;101965.4;;;22.97
48628;BMP280;34424;52.234;6.500;2023-05-20T14:16:49;101974.9;;;22.15
48628;BMP280;34424;52.234;6.500;2023-05-20T14:21:49;101966.3;;;22.13
48628;BMP280;34424;52.234;6.500;2023-05-20T14:26:49;101959.2;;;22.11
48628;BMP280;34424;52.234;6.500;2023-05-20T14:31:49;101964.1;;;21.96
48628;BMP280;34424;52.234;6.500;2023-05-20T14:36:49;101960.4;;;21.63
48628;BMP280;34424;52.234;6.500;2023-05-20T14:41:49;101955.8;;;22.2
48628;BMP280;34424;52.234;6.500;2023-05-20T14:46:49;101960.4;;;21.74
48628;BMP280;34424;52.234;6.500;2023-05-20T14:51:49;101959.6;;;21.44
48628;BMP280;34424;52.234;6.500;2023-05-20T14:56:49;101953.7;;;22.17
48628;BMP280;34424;52.234;6.500;2023-05-20T15:01:49;101952.1;;;22.32
48628;BMP280;34424;52.234;6.500;2023-05-20T15:06:49;101948.3;;;22.64
48628;BMP280;34424;52.234;6.500;2023-05-20T15:11:49;101939;;;22.46
48628;BMP280;34424;52.234;6.500;2023-05-20T15:16:49;101946.5;;;22.28
48628;BMP280;34424;52.234;6.500;2023-05-20T15:21:49;101945.2;;;22.46
48628;BMP280;34424;52.234;6.500;2023-05-20T15:26:50;101945.2;;;22.78
48628;BMP280;34424;52.234;6.500;2023-05-20T15:31:49;101942.9;;;22.48
48628;BMP280;34424;52.234;6.500;2023-05-20T15:36:49;101936.4;;;22.37
48628;BMP280;34424;52.234;6.500;2023-05-20T15:41:49;101929.9;;;22.62
48628;BMP280;34424;52.234;6.500;2023-05-20T15:46:49;101931;;;22.56
48628;BMP280;34424;52.234;6.500;2023-05-20T15:51:49;101928.8;;;21.16
48628;BMP280;34424;52.234;6.500;2023-05-20T15:56:49;101924.8;;;20.36
48628;BMP280;34424;52.234;6.500;2023-05-20T16:01:49;101912.5;;;20.13
48628;BMP280;34424;52.234;6.500;2023-05-20T16:06:49;101900.7;;;21.4
48628;BMP280;34424;52.234;6.500;2023-05-20T16:11:50;101903.6;;;22.02
48628;BMP280;34424;52.234;6.500;2023-05-20T16:16:49;101918.5;;;21.01
48628;BMP280;34424;52.234;6.500;2023-05-20T16:21:49;101915;;;20.35
48628;BMP280;34424;52.234;6.500;2023-05-20T16:26:50;101910.9;;;21.86
48628;BMP280;34424;52.234;6.500;2023-05-20T16:31:49;101906.2;;;21.35
48628;BMP280;34424;52.234;6.500;2023-05-20T16:36:50;101904.9;;;21.3
48628;BMP280;34424;52.234;6.500;2023-05-20T16:41:49;101917.1;;;20.76
48628;BMP280;34424;52.234;6.500;2023-05-20T16:46:49;101910.1;;;20.85
48628;BMP280;34424;52.234;6.500;2023-05-20T16:51:49;101900.1;;;21.53
48628;BMP280;34424;52.234;6.500;2023-05-20T16:56:49;101908.5;;;21.75
48628;BMP280;34424;52.234;6.500;2023-05-20T17:01:49;101912.6;;;21.38
48628;BMP280;34424;52.234;6.500;2023-05-20T17:06:49;101917.2;;;21.65
48628;BMP280;34424;52.234;6.500;2023-05-20T17:11:49;101918.9;;;22.03
48628;BMP280;34424;52.234;6.500;2023-05-20T17:16:49;101914.5;;;21.35
48628;BMP280;34424;52.234;6.500;2023-05-20T17:21:50;101914.1;;;21.52
48628;BMP280;34424;52.234;6.500;2023-05-20T17:26:49;101916.4;;;21.7
48628;BMP280;34424;52.234;6.500;2023-05-20T17:31:49;101915.2;;;21.46
48628;BMP280;34424;52.234;6.500;2023-05-20T17:36:49;101921.9;;;21.79
48628;BMP280;34424;52.234;6.500;2023-05-20T17:41:50;101921.3;;;21.02
48628;BMP280;34424;52.234;6.500;2023-05-20T17:46:50;101919.6;;;21.11
48628;BMP280;34424;52.234;6.500;2023-05-20T17:51:50;101924.4;;;20.13
48628;BMP280;34424;52.234;6.500;2023-05-20T17:56:50;101930;;;19.05
48628;BMP280;34424;52.234;6.500;2023-05-20T18:01:50;101929.4;;;18.59
48628;BMP280;34424;52.234;6.500;2023-05-20T18:06:50;101937.3;;;17.88
48628;BMP280;34424;52.234;6.500;2023-05-20T18:11:50;101933.2;;;17.57
48628;BMP280;34424;52.234;6.500;2023-05-20T18:16:50;101938.3;;;17.32
48628;BMP280;34424;52.234;6.500;2023-05-20T18:21:50;101933.6;;;17.17
48628;BMP280;34424;52.234;6.500;2023-05-20T18:26:50;101938.2;;;17.1
48628;BMP280;34424;52.234;6.500;2023-05-20T18:31:50;101941.4;;;16.99
48628;BMP280;34424;52.234;6.500;2023-05-20T18:36:50;101936.3;;;16.86
48628;BMP280;34424;52.234;6.500;2023-05-20T18:41:50;101935.4;;;16.82
48628;BMP280;34424;52.234;6.500;2023-05-20T18:46:50;101940.9;;;16.75
48628;BMP280;34424;52.234;6.500;2023-05-20T18:51:50;101940.1;;;16.6
48628;BMP280;34424;52.234;6.500;2023-05-20T18:56:50;101931.7;;;16.45
48628;BMP280;34424;52.234;6.500;2023-05-20T19:01:50;101928.8;;;16.39
48628;BMP280;34424;52.234;6.500;2023-05-20T19:06:50;101927.4;;;16.27
48628;BMP280;34424;52.234;6.500;2023-05-20T19:11:50;101931.7;;;16.24
48628;BMP280;34424;52.234;6.500;2023-05-20T19:16:50;101927.1;;;16.13
48628;BMP280;34424;52.234;6.500;2023-05-20T19:21:50;101927.6;;;16.03
48628;BMP280;34424;52.234;6.500;2023-05-20T19:26:50;101927.4;;;15.86
48628;BMP280;34424;52.234;6.500;2023-05-20T19:31:50;101929.5;;;15.65
48628;BMP280;34424;52.234;6.500;2023-05-20T19:36:50;101927.9;;;15.36
48628;BMP280;34424;52.234;6.500;2023-05-20T19:41:50;101938.1;;;14.98
48628;BMP280;34424;52.234;6.500;2023-05-20T19:46:50;101941.6;;;14.57
48628;BMP280;34424;52.234;6.500;2023-05-20T19:51:50;101946.6;;;14.28
48628;BMP280;34424;52.234;6.500;2023-05-20T19:56:50;101949.5;;;14.07
48628;BMP280;34424;52.234;6.500;2023-05-20T20:01:50;101950.5;;;13.93
48628;BMP280;34424;52.234;6.500;2023-05-20T20:06:50;101949.6;;;13.84
48628;BMP280;34424;52.234;6.500;2023-05-20T20:11:50;101955.1;;;13.77
48628;BMP280;34424;52.234;6.500;2023-05-20T20:16:50;101955.1;;;13.83
48628;BMP280;34424;52.234;6.500;2023-05-20T20:21:50;101949.3;;;13.82
48628;BMP280;34424;52.234;6.500;2023-05-20T20:26:50;101953.3;;;13.83
48628;BMP280;34424;52.234;6.500;2023-05-20T20:31:50;101949.5;;;13.77
48628;BMP280;34424;52.234;6.500;2023-05-20T20:36:50;101950.7;;;13.78
48628;BMP280;34424;52.234;6.500;2023-05-20T20:41:50;101942.9;;;13.82
48628;BMP280;34424;52.234;6.500;2023-05-20T20:46:50;101941.9;;;13.73
48628;BMP280;34424;52.234;6.500;2023-05-20T20:51:51;101942.3;;;13.68
48628;BMP280;34424;52.234;6.500;2023-05-20T20:56:50;101944.5;;;13.62
48628;BMP280;34424;52.234;6.500;2023-05-20T21:01:50;101935;;;13.46
48628;BMP280;34424;52.234;6.500;2023-05-20T21:06:50;101934.2;;;13.34
48628;BMP280;34424;52.234;6.500;2023-05-20T21:11:50;101930.6;;;13.21
48628;BMP280;34424;52.234;6.500;2023-05-20T21:16:50;101930.1;;;13.18
48628;BMP280;34424;52.234;6.500;2023-05-20T21:21:50;101928.3;;;13.23
48628;BMP280;34424;52.234;6.500;2023-05-20T21:26:50;101930.1;;;13.3
48628;BMP280;34424;52.234;6.500;2023-05-20T21:31:50;101931.8;;;13.41
48628;BMP280;34424;52.234;6.500;2023-05-20T21:36:50;101931.6;;;13.56
48628;BMP280;34424;52.234;6.500;2023-05-20T21:41:50;101934.5;;;13.67
48628;BMP280;34424;52.234;6.500;2023-05-20T21:46:50;101917.9;;;13.75
48628;BMP280;34424;52.234;6.500;2023-05-20T21:51:50;101907.7;;;13.78
48628;BMP280;34424;52.234;6.500;2023-05-20T21:56:50;101901.7;;;13.79
48628;BMP280;34424;52.234;6.500;2023-05-20T22:01:50;101901;;;13.84
48628;BMP280;34424;52.234;6.500;2023-05-20T22:06:50;101891.4;;;13.86
48628;BMP280;34424;52.234;6.500;2023-05-20T22:11:50;101894.5;;;13.92
48628;BMP280;34424;52.234;6.500;2023-05-20T22:16:50;101899.3;;;13.94
48628;BMP280;34424;52.234;6.500;2023-05-20T22:21:50;101889.6;;;13.96
48628;BMP280;34424;52.234;6.500;2023-05-20T22:26:50;101884.7;;;13.97
48628;BMP280;34424;52.234;6.500;2023-05-20T22:31:50;101875;;;13.96
48628;BMP280;34424;52.234;6.500;2023-05-20T22:36:50;101870.5;;;14
48628;BMP280;34424;52.234;6.500;2023-05-20T22:41:50;101866.1;;;14.03
48628;BMP280;34424;52.234;6.500;2023-05-20T22:46:50;101859.5;;;14
48628;BMP280;34424;52.234;6.500;2023-05-20T22:51:50;101857.4;;;13.98
48628;BMP280;34424;52.234;6.500;2023-05-20T22:56:50;101853.8;;;14
48628;BMP280;34424;52.234;6.500;2023-05-20T23:01:50;101844.3;;;13.99
48628;BMP280;34424;52.234;6.500;2023-05-20T23:06:50;101838.7;;;14.01
48628;BMP280;34424;52.234;6.500;2023-05-20T23:11:50;101838.1;;;13.97
48628;BMP280;34424;52.234;6.500;2023-05-20T23:16:50;101838.3;;;13.97
48628;BMP280;34424;52.234;6.500;2023-05-20T23:21:50;101839;;;13.98
48628;BMP280;34424;52.234;6.500;2023-05-20T23:26:50;101835;;;13.98
48628;BMP280;34424;52.234;6.500;2023-05-20T23:31:50;101831.8;;;13.97
48628;BMP280;34424;52.234;6.500;2023-05-20T23:36:50;101830.5;;;13.95
48628;BMP280;34424;52.234;6.500;2023-05-20T23:41:50;101823.8;;;13.93
48628;BMP280;34424;52.234;6.500;2023-05-20T23:46:50;101817;;;13.87
48628;BMP280;34424;52.234;6.500;2023-05-20T23:51:50;101810.7;;;13.86
48628;BMP280;34424;52.234;6.500;2023-05-20T23:56:50;101806.6;;;13.86
